Carmen — SMGW — position and weather

sailwx.info

Track history (hours):
 
Tides and Currents Weather Stations Pressure Air Temp Water Temp Dewpoint Dewpoint Depression Visibility Wind Speed Wind Dir Waves Ship Positions

Carmen

Last reported at 2018-May-25 14:13 UTC. Time now 2018-May-26 02:37 UTC.
Position N 28°02' W 016°18'.

Length 231 m; draft 10.3 m.

Type: Cargo ship. MMSI: 266339000.

Date/timePositionNaut miles runAvg speedWind from/ knotsBaromVisibWave heightAir tempDewpointWater temp
2018-May-25 14:13N 28°02' W 016°18'519.1
2018-May-25 13:58N 28°06' W 016°14'919.3
2018-May-25 13:30N 28°13' W 016°08'1019.3
2018-May-25 13:00N 28°21' W 016°01'918.8
2018-May-25 12:30N 28°28' W 015°55'918.7
2018-May-25 12:00N 28°35' W 015°48'7462.5
2018-May-25 12:00N 28°42' W 015°48'4 8.6 360 / 171016.0 2.2 22.9 18.0
2018-May-25 11:30N 28°44' W 015°44'918.9
2018-May-25 11:00N 28°53' W 015°41'9418.8
2018-May-25 06:00N 30°24' W 015°12'11218.7 360 / 161019.0 2.2 17.7 18.0
2018-May-25 00:00N 32°12' W 014°36'21818.2 340 / 161018.0 2.2 17.5 18.0
2018-May-24 12:00N 35°42' W 013°24'59418.3 360 / 101012.0 2.2 18.6 17.0
2018-May-23 03:33N 45°05' W 009°12'118.5
2018-May-23 03:29N 45°06' W 009°12'918.3
2018-May-23 02:59N 45°13' W 009°05'30821027.6
2018-May-23 00:00N 46°00' W 082°30'3116285.8 050 1016.0 2.2 15.0
2018-May-22 13:05N 48°52' W 005°51'218.2
2018-May-22 13:00N 48°53' W 005°50'917.8
2018-May-22 12:30N 48°58' W 005°38'18413569.9
2018-May-22 12:00N 49°12' W 052°30'184930263.5 340 1015.0 2.2 12.0
2018-May-22 11:56N 49°02' W 005°24'716.0
2018-May-22 11:30N 49°05' W 005°15'812.5
2018-May-22 10:52N 49°10' W 005°05'5517.0
2018-May-22 07:36N 49°38' W 003°51'218.2
2018-May-22 07:30N 49°38' W 003°49'1018.7
2018-May-22 07:00N 49°43' W 003°36'1419.2
2018-May-22 06:15N 49°50' W 003°17'819.4
2018-May-22 05:49N 49°54' W 003°06'619.4
2018-May-22 05:30N 49°58' W 002°57'1019.3
2018-May-22 05:01N 50°00' W 002°43'1019.1
2018-May-22 04:30N 50°02' W 002°29'918.6
2018-May-22 04:00N 50°04' W 002°14'918.0
2018-May-22 03:30N 50°08' W 002°01'917.4
2018-May-22 03:00N 50°12' W 001°50'817.0
2018-May-22 02:31N 50°16' W 001°38'816.6
2018-May-22 02:00N 50°20' W 001°27'816.2
2018-May-22 01:30N 50°24' W 001°16'815.8
2018-May-22 01:01N 50°29' W 001°06'815.6
2018-May-22 00:30N 50°35' W 000°58'612.6
2018-May-22 00:00N 50°41' W 000°57'612.6
2018-May-21 23:30N 50°45' W 001°05'816.9
2018-May-21 23:01N 50°47' W 001°18'4 8.4
2018-May-21 22:31N 50°51' W 001°20'3 6.9
2018-May-21 22:01N 50°53' W 001°24'0 0.5
2018-May-21 21:28N 50°54' W 001°24'0 0.0
2018-May-21 20:58N 50°54' W 001°24'0 0.0
2018-May-21 20:28N 50°54' W 001°24'0 0.0
2018-May-21 19:55N 50°54' W 001°24'0 0.0
2018-May-21 19:28N 50°54' W 001°24'0 0.0
2018-May-21 18:58N 50°54' W 001°24'0 0.0
2018-May-21 18:28N 50°54' W 001°24'0 0.0
2018-May-21 17:58N 50°54' W 001°24'0 0.0
2018-May-21 17:28N 50°54' W 001°24'0 0.0
2018-May-21 16:58N 50°54' W 001°24'0 0.0
2018-May-21 16:28N 50°54' W 001°24'0 0.0
2018-May-21 15:58N 50°54' W 001°24'0 0.0
2018-May-21 15:28N 50°54' W 001°24'0 0.0
2018-May-21 14:58N 50°54' W 001°24'0 0.0
2018-May-21 14:28N 50°54' W 001°24'0 0.0
2018-May-21 13:58N 50°54' W 001°24'0 0.0
2018-May-21 13:28N 50°54' W 001°24'0 0.0
2018-May-21 12:58N 50°54' W 001°24'0 0.0
2018-May-21 12:28N 50°54' W 001°24'0 0.0
2018-May-21 11:58N 50°54' W 001°24'0 0.0
2018-May-21 11:28N 50°54' W 001°24'0 0.0
2018-May-21 10:58N 50°54' W 001°24'0 0.0
2018-May-21 10:28N 50°54' W 001°24'0 0.0
2018-May-21 09:58N 50°54' W 001°24'0 0.0
2018-May-21 09:28N 50°54' W 001°24'0 0.0
2018-May-21 08:58N 50°54' W 001°24'0 0.0
2018-May-21 08:28N 50°54' W 001°24'0 0.0
2018-May-21 07:55N 50°54' W 001°24'0 0.0
2018-May-21 07:28N 50°54' W 001°24'0 0.0
2018-May-21 06:58N 50°54' W 001°24'0 0.0
2018-May-21 06:28N 50°54' W 001°24'0 0.0
2018-May-21 05:59N 50°54' W 001°24'1 1.3
2018-May-21 05:30N 50°53' W 001°24'4 7.5
2018-May-21 05:00N 50°50' W 001°19'4 7.8
2018-May-21 04:31N 50°46' W 001°19'815.4
2018-May-21 04:00N 50°45' W 001°07'815.7
2018-May-21 03:30N 50°41' W 000°56'611.1
2018-May-21 03:01N 50°36' W 000°51'611.9
2018-May-21 02:31N 50°33' W 000°44'3 7.0
2018-May-21 02:01N 50°30' W 000°40'1 1.5
2018-May-21 01:31N 50°30' W 000°41'1 2.2
2018-May-21 01:01N 50°29' W 000°42'1 1.5
2018-May-21 00:30N 50°29' W 000°43'1 1.7
2018-May-21 00:00N 50°29' W 000°44'1 1.7
2018-May-20 23:31N 50°29' W 000°46'1 1.5
2018-May-20 23:01N 50°29' W 000°47'1 2.2
2018-May-20 22:31N 50°29' W 000°48'0 0.4
2018-May-20 22:01N 50°29' W 000°48'1 1.4
2018-May-20 21:30N 50°29' W 000°49'1 2.1
2018-May-20 21:01N 50°30' W 000°51'0 0.8
2018-May-20 20:31N 50°29' W 000°51'1 2.4
2018-May-20 20:01N 50°30' W 000°53'1 1.4
2018-May-20 19:31N 50°29' W 000°52'1 1.3
2018-May-20 19:01N 50°29' W 000°52'1 1.5
2018-May-20 18:30N 50°28' W 000°51'1 1.6
2018-May-20 18:00N 50°29' W 000°52'1 1.7
2018-May-20 17:30N 50°29' W 000°51'1 1.6
2018-May-20 17:00N 50°29' W 000°52'0 0.3
2018-May-20 16:30N 50°29' W 000°52'1 2.5
2018-May-20 16:00N 50°29' W 000°50'1 1.9
2018-May-20 15:31N 50°28' W 000°49'0 1.0
2018-May-20 15:01N 50°29' W 000°48'1 1.1
2018-May-20 14:30N 50°29' W 000°48'0 0.1
2018-May-20 14:00N 50°29' W 000°48'1 1.3
2018-May-20 13:31N 50°29' W 000°48'510.5
2018-May-20 13:00N 50°30' W 000°40'713.2
2018-May-20 12:30N 50°31' W 000°30'713.6
2018-May-20 12:00N 50°32' W 000°19'713.8
2018-May-20 11:30N 50°33' W 000°08'713.9
2018-May-20 11:00N 50°33' E 000°02'714.7
2018-May-20 10:30N 50°35' E 000°14'815.3
2018-May-20 10:00N 50°36' E 000°25'816.1
2018-May-20 09:30N 50°39' E 000°37'816.8
2018-May-20 09:00N 50°44' E 000°48'917.1
2018-May-20 08:30N 50°49' E 000°59'917.1
2018-May-20 07:57N 50°55' E 001°11'816.9
2018-May-20 07:29N 51°00' E 001°20'816.4
2018-May-20 07:00N 51°05' E 001°30'815.3
2018-May-20 06:30N 51°10' E 001°39'714.8
2018-May-20 06:00N 51°15' E 001°48'714.2
2018-May-20 05:30N 51°21' E 001°55'612.3
2018-May-20 05:00N 51°25' E 002°02'815.2
2018-May-20 04:31N 51°22' E 002°14'713.4
2018-May-20 04:00N 51°22' E 002°24'814.3
2018-May-20 03:28N 51°23' E 002°37'713.2
2018-May-20 02:59N 51°22' E 002°47'816.3
2018-May-20 02:30N 51°23' E 002°59'714.3
2018-May-20 02:00N 51°22' E 003°11'3 5.4
2018-May-20 01:30N 51°20' E 003°13'0 0.0
2018-May-20 00:58N 51°20' E 003°13'1 2.2
2018-May-20 00:28N 51°19' E 003°14'0 0.0
2018-May-19 23:52N 51°19' E 003°14'0 0.0
2018-May-19 23:25N 51°19' E 003°14'0 0.0
2018-May-19 22:58N 51°19' E 003°14'0 0.0
2018-May-19 22:10N 51°19' E 003°14'0 0.0
2018-May-19 21:58N 51°19' E 003°14'0 0.0
2018-May-19 21:28N 51°19' E 003°14'0 0.0
2018-May-19 20:58N 51°19' E 003°14'0 0.0
2018-May-19 20:28N 51°19' E 003°14'0 0.0
2018-May-19 19:55N 51°19' E 003°14'0 0.0
2018-May-19 19:25N 51°19' E 003°14'0 0.0
2018-May-19 18:49N 51°19' E 003°14'0 0.0
2018-May-19 18:19N 51°19' E 003°14'0 0.0
2018-May-19 17:49N 51°19' E 003°14'0 0.0
2018-May-19 17:13N 51°19' E 003°14'0 0.0
2018-May-19 16:52N 51°19' E 003°14'0 0.0
2018-May-19 16:28N 51°19' E 003°14'0 0.0
2018-May-19 15:52N 51°19' E 003°14'0 0.0
2018-May-19 14:22N 51°19' E 003°14'0 0.0
2018-May-19 13:46N 51°19' E 003°14'0 0.0
2018-May-19 13:28N 51°19' E 003°14'0 0.0
2018-May-19 12:46N 51°19' E 003°14'0 0.0
2018-May-19 12:25N 51°19' E 003°14'0 0.0
2018-May-19 11:37N 51°19' E 003°14'0 0.0
2018-May-19 11:19N 51°19' E 003°14'0 0.0
2018-May-19 10:46N 51°19' E 003°14'0 0.0
2018-May-19 10:25N 51°19' E 003°14'0 0.0
2018-May-19 09:37N 51°19' E 003°14'0 0.0
2018-May-19 09:25N 51°19' E 003°14'0 0.0
2018-May-19 08:55N 51°19' E 003°14'0 0.0
2018-May-19 08:28N 51°19' E 003°14'0 0.0
2018-May-19 07:43N 51°19' E 003°14'0 0.0
2018-May-19 07:25N 51°19' E 003°14'0 0.0
2018-May-19 06:55N 51°19' E 003°14'0 0.0
2018-May-19 06:28N 51°19' E 003°14'0 0.0
2018-May-19 05:58N 51°19' E 003°14'0 0.0
2018-May-19 05:13N 51°19' E 003°14'0 0.0
2018-May-19 04:52N 51°19' E 003°14'0 0.0
2018-May-19 04:25N 51°19' E 003°14'0 0.0
2018-May-19 03:55N 51°19' E 003°14'0 0.0
2018-May-19 03:28N 51°19' E 003°14'0 0.0
2018-May-19 02:58N 51°19' E 003°14'0 0.0
2018-May-19 02:28N 51°19' E 003°14'0 0.0
2018-May-19 01:40N 51°19' E 003°14'0 0.0
2018-May-19 01:28N 51°19' E 003°14'0 0.0
2018-May-19 00:46N 51°19' E 003°14'0 0.0
2018-May-19 00:13N 51°19' E 003°14'0 0.0
2018-May-18 23:55N 51°19' E 003°14'0 0.0
2018-May-18 23:25N 51°19' E 003°14'0 0.0
2018-May-18 22:43N 51°19' E 003°14'0 0.0
2018-May-18 22:25N 51°19' E 003°14'0 0.0
2018-May-18 21:46N 51°19' E 003°14'0 0.0
2018-May-18 21:13N 51°19' E 003°14'0 0.0
2018-May-18 20:58N 51°19' E 003°14'0 0.0
2018-May-18 20:19N 51°19' E 003°14'0 0.0
2018-May-18 19:46N 51°19' E 003°14'0 0.0
2018-May-18 19:19N 51°19' E 003°14'0 0.0
2018-May-18 18:49N 51°19' E 003°14'0 0.0
2018-May-18 18:19N 51°19' E 003°14'0 0.0
2018-May-18 17:58N 51°19' E 003°14'0 0.0
2018-May-18 17:28N 51°19' E 003°14'0 0.0
2018-May-18 16:58N 51°19' E 003°14'0 0.0
2018-May-18 16:25N 51°19' E 003°14'0 0.0
2018-May-18 15:52N 51°19' E 003°14'0 0.0
2018-May-18 15:28N 51°19' E 003°14'0 0.0
2018-May-18 14:55N 51°19' E 003°14'0 0.0
2018-May-18 14:28N 51°19' E 003°14'0 0.0
2018-May-18 13:58N 51°19' E 003°14'0 0.0
2018-May-18 13:25N 51°19' E 003°14'0 0.0
2018-May-18 12:49N 51°19' E 003°14'0 0.0
2018-May-18 12:25N 51°19' E 003°14'0 0.0
2018-May-18 11:58N 51°19' E 003°14'1 1.6
2018-May-18 11:30N 51°20' E 003°13'0 0.7
2018-May-18 10:59N 51°20' E 003°13'0 0.4
2018-May-18 10:30N 51°20' E 003°13'3 5.8
2018-May-18 10:00N 51°23' E 003°10'612.6
2018-May-18 09:30N 51°23' E 003°00'713.5
2018-May-18 09:01N 51°22' E 002°50'611.7
2018-May-18 08:31N 51°22' E 002°40'610.8
2018-May-18 07:59N 51°22' E 002°31'713.8
2018-May-18 07:27N 51°29' E 002°35'817.2
2018-May-18 07:00N 51°36' E 002°39'916.4
2018-May-18 06:29N 51°45' E 002°38'817.1
2018-May-18 06:00N 51°53' E 002°39'916.7
2018-May-18 05:29N 52°00' E 002°46'816.4
2018-May-18 05:00N 52°07' E 002°55'816.1
2018-May-18 04:31N 52°13' E 003°02'816.2
2018-May-18 04:00N 52°20' E 003°10'1016.5
2018-May-18 03:24N 52°28' E 003°20'716.7
2018-May-18 03:00N 52°33' E 003°26'917.3
2018-May-18 02:30N 52°40' E 003°34'1518.4
2018-May-18 01:41N 52°52' E 003°50'518.9
2018-May-18 01:26N 52°55' E 003°55'919.0
2018-May-18 00:56N 53°02' E 004°07'1019.3
2018-May-18 00:26N 53°08' E 004°19'919.3
2018-May-18 00:00N 53°14' E 004°28'1418.8
2018-May-17 23:14N 53°28' E 004°38'418.5
2018-May-17 23:00N 53°29' E 004°44'918.1
2018-May-17 22:31N 53°33' E 004°58'917.5
2018-May-17 21:59N 53°37' E 005°12'816.8
2018-May-17 21:30N 53°40' E 005°25'916.8
2018-May-17 20:57N 53°42' E 005°40'8615.7
2018-May-17 15:28N 53°50' E 008°04'817.0
2018-May-17 15:00N 53°44' E 008°14'714.6
2018-May-17 14:30N 53°40' E 008°23'612.6
2018-May-17 14:00N 53°36' E 008°31'2 3.6
2018-May-17 13:30N 53°34' E 008°33'0 0.1
2018-May-17 13:00N 53°34' E 008°33'0 0.9
2018-May-17 12:30N 53°35' E 008°33'0 0.0
2018-May-17 11:55N 53°35' E 008°33'0 0.0
2018-May-17 11:25N 53°35' E 008°33'0 0.0
2018-May-17 10:58N 53°35' E 008°33'0 0.0
2018-May-17 10:28N 53°35' E 008°33'0 0.0
2018-May-17 09:52N 53°35' E 008°33'0 0.0
2018-May-17 09:28N 53°35' E 008°33'0 0.0
2018-May-17 08:58N 53°35' E 008°33'0 0.0
2018-May-17 08:19N 53°35' E 008°33'0 0.0
2018-May-17 07:58N 53°35' E 008°33'0 0.0
2018-May-17 07:28N 53°35' E 008°33'0 0.0
2018-May-17 06:58N 53°35' E 008°33'0 0.0
2018-May-17 06:28N 53°35' E 008°33'0 0.0
2018-May-17 05:55N 53°35' E 008°33'0 0.0
2018-May-17 05:28N 53°35' E 008°33'0 0.0
2018-May-17 04:58N 53°35' E 008°33'0 0.0
2018-May-17 04:28N 53°35' E 008°33'0 0.0
2018-May-17 03:58N 53°35' E 008°33'0 0.0
2018-May-17 03:28N 53°35' E 008°33'0 0.0
2018-May-17 02:58N 53°35' E 008°33'0 0.0
2018-May-17 02:28N 53°35' E 008°33'0 0.0
2018-May-17 01:58N 53°35' E 008°33'0 0.0
2018-May-17 01:28N 53°35' E 008°33'0 0.0
2018-May-17 00:58N 53°35' E 008°33'0 0.0
2018-May-17 00:28N 53°35' E 008°33'0 0.0
2018-May-16 23:58N 53°35' E 008°33'0 0.0
2018-May-16 23:28N 53°35' E 008°33'0 0.0
2018-May-16 22:58N 53°35' E 008°33'0 0.0
2018-May-16 22:25N 53°35' E 008°33'0 0.0
2018-May-16 21:58N 53°35' E 008°33'0 0.0
2018-May-16 21:25N 53°35' E 008°33'0 0.0
2018-May-16 20:58N 53°35' E 008°33'0 0.0
2018-May-16 20:28N 53°35' E 008°33'0 0.0
2018-May-16 19:58N 53°35' E 008°33'0 0.0
2018-May-16 19:19N 53°35' E 008°33'0 0.0
2018-May-16 18:58N 53°35' E 008°33'0 0.0
2018-May-16 18:28N 53°35' E 008°33'0 0.0
2018-May-16 17:58N 53°35' E 008°33'0 0.0
2018-May-16 17:28N 53°35' E 008°33'0 0.0
2018-May-16 16:55N 53°35' E 008°33'0 0.0
2018-May-16 16:28N 53°35' E 008°33'0 0.0
2018-May-16 15:58N 53°35' E 008°33'0 0.0
2018-May-16 15:28N 53°35' E 008°33'0 0.0
2018-May-16 14:58N 53°35' E 008°33'0 0.0
2018-May-16 14:28N 53°35' E 008°33'0 0.0
2018-May-16 13:58N 53°35' E 008°33'0 0.0
2018-May-16 13:28N 53°35' E 008°33'0 0.0
2018-May-16 12:58N 53°35' E 008°33'0 0.0
2018-May-16 12:28N 53°35' E 008°33'0 0.0
2018-May-16 11:58N 53°35' E 008°33'0 0.0
2018-May-16 11:28N 53°35' E 008°33'0 0.0
2018-May-16 10:58N 53°35' E 008°33'0 0.0
2018-May-16 10:28N 53°35' E 008°33'0 0.0
2018-May-16 09:55N 53°35' E 008°33'0 0.0
2018-May-16 09:25N 53°35' E 008°33'0 0.0
2018-May-16 08:58N 53°35' E 008°33'0 0.0
2018-May-16 08:28N 53°35' E 008°33'0 0.0
2018-May-16 07:58N 53°35' E 008°33'0 0.0
2018-May-16 07:28N 53°35' E 008°33'0 0.0
2018-May-16 06:58N 53°35' E 008°33'0 0.0
2018-May-16 06:28N 53°35' E 008°33'0 0.0
2018-May-16 05:58N 53°35' E 008°33'0 0.0
2018-May-16 05:28N 53°35' E 008°33'0 0.0
2018-May-16 04:58N 53°35' E 008°33'0 0.0
2018-May-16 04:28N 53°35' E 008°33'0 0.0
2018-May-16 03:58N 53°35' E 008°33'0 0.0
2018-May-16 03:28N 53°35' E 008°33'0 0.0
2018-May-16 02:58N 53°35' E 008°33'0 0.0
2018-May-16 02:28N 53°35' E 008°33'0 0.0
2018-May-16 01:58N 53°35' E 008°33'0 0.0
2018-May-16 01:28N 53°35' E 008°33'0 0.0
2018-May-16 00:58N 53°35' E 008°33'0 0.0
2018-May-16 00:28N 53°35' E 008°33'0 0.0
2018-May-15 23:55N 53°35' E 008°33'0 0.0
2018-May-15 23:28N 53°35' E 008°33'0 0.0
2018-May-15 22:58N 53°35' E 008°33'0 0.0
2018-May-15 22:28N 53°35' E 008°33'0 0.0
2018-May-15 21:58N 53°35' E 008°33'0 0.0
2018-May-15 21:28N 53°35' E 008°33'0 0.0
2018-May-15 20:43N 53°35' E 008°33'0 0.0
2018-May-15 20:22N 53°35' E 008°33'0 0.0
2018-May-15 19:58N 53°35' E 008°33'0 0.0
2018-May-15 19:28N 53°35' E 008°33'0 0.0
2018-May-15 18:52N 53°35' E 008°33'0 0.0
2018-May-15 18:28N 53°35' E 008°33'0 0.0
2018-May-15 17:58N 53°35' E 008°33'0 0.0
2018-May-15 17:28N 53°35' E 008°33'0 0.0
2018-May-15 16:58N 53°35' E 008°33'0 0.0
2018-May-15 16:28N 53°35' E 008°33'0 0.0
2018-May-15 15:58N 53°35' E 008°33'0 0.0
2018-May-15 15:28N 53°35' E 008°33'0 0.0
2018-May-15 14:58N 53°35' E 008°33'0 0.0
2018-May-15 14:25N 53°35' E 008°33'  
Track history (hours):
 
Tides and Currents Weather Stations Pressure Air Temp Water Temp Dewpoint Dewpoint Depression Visibility Wind Speed Wind Dir Waves Ship Positions

Carmen

Last reported at 2018-May-25 14:13 UTC. Time now 2018-May-26 02:37 UTC.
Position N 28°02' W 016°18'.

Length 231 m; draft 10.3 m.

Type: Cargo ship. MMSI: 266339000.

Date/timePositionNaut miles runAvg speedWind from/ knotsBaromVisibWave heightAir tempDewpointWater temp
2018-May-25 14:13N 28°02' W 016°18'519.1
2018-May-25 13:58N 28°06' W 016°14'919.3
2018-May-25 13:30N 28°13' W 016°08'1019.3
2018-May-25 13:00N 28°21' W 016°01'918.8
2018-May-25 12:30N 28°28' W 015°55'918.7
2018-May-25 12:00N 28°35' W 015°48'7462.5
2018-May-25 12:00N 28°42' W 015°48'4 8.6 360 / 171016.0 2.2 22.9 18.0
2018-May-25 11:30N 28°44' W 015°44'918.9
2018-May-25 11:00N 28°53' W 015°41'9418.8
2018-May-25 06:00N 30°24' W 015°12'11218.7 360 / 161019.0 2.2 17.7 18.0
2018-May-25 00:00N 32°12' W 014°36'21818.2 340 / 161018.0 2.2 17.5 18.0
2018-May-24 12:00N 35°42' W 013°24'59418.3 360 / 101012.0 2.2 18.6 17.0
2018-May-23 03:33N 45°05' W 009°12'118.5
2018-May-23 03:29N 45°06' W 009°12'918.3
2018-May-23 02:59N 45°13' W 009°05'30821027.6
2018-May-23 00:00N 46°00' W 082°30'3116285.8 050 1016.0 2.2 15.0
2018-May-22 13:05N 48°52' W 005°51'218.2
2018-May-22 13:00N 48°53' W 005°50'917.8
2018-May-22 12:30N 48°58' W 005°38'18413569.9
2018-May-22 12:00N 49°12' W 052°30'184930263.5 340 1015.0 2.2 12.0
2018-May-22 11:56N 49°02' W 005°24'716.0
2018-May-22 11:30N 49°05' W 005°15'812.5
2018-May-22 10:52N 49°10' W 005°05'5517.0
2018-May-22 07:36N 49°38' W 003°51'218.2
2018-May-22 07:30N 49°38' W 003°49'1018.7
2018-May-22 07:00N 49°43' W 003°36'1419.2
2018-May-22 06:15N 49°50' W 003°17'819.4
2018-May-22 05:49N 49°54' W 003°06'619.4
2018-May-22 05:30N 49°58' W 002°57'1019.3
2018-May-22 05:01N 50°00' W 002°43'1019.1
2018-May-22 04:30N 50°02' W 002°29'918.6
2018-May-22 04:00N 50°04' W 002°14'918.0
2018-May-22 03:30N 50°08' W 002°01'917.4
2018-May-22 03:00N 50°12' W 001°50'817.0
2018-May-22 02:31N 50°16' W 001°38'816.6
2018-May-22 02:00N 50°20' W 001°27'816.2
2018-May-22 01:30N 50°24' W 001°16'815.8
2018-May-22 01:01N 50°29' W 001°06'815.6
2018-May-22 00:30N 50°35' W 000°58'612.6
2018-May-22 00:00N 50°41' W 000°57'612.6
2018-May-21 23:30N 50°45' W 001°05'816.9
2018-May-21 23:01N 50°47' W 001°18'4 8.4
2018-May-21 22:31N 50°51' W 001°20'3 6.9
2018-May-21 22:01N 50°53' W 001°24'0 0.5
2018-May-21 21:28N 50°54' W 001°24'0 0.0
2018-May-21 20:58N 50°54' W 001°24'0 0.0
2018-May-21 20:28N 50°54' W 001°24'0 0.0
2018-May-21 19:55N 50°54' W 001°24'0 0.0
2018-May-21 19:28N 50°54' W 001°24'0 0.0
2018-May-21 18:58N 50°54' W 001°24'0 0.0
2018-May-21 18:28N 50°54' W 001°24'0 0.0
2018-May-21 17:58N 50°54' W 001°24'0 0.0
2018-May-21 17:28N 50°54' W 001°24'0 0.0
2018-May-21 16:58N 50°54' W 001°24'0 0.0
2018-May-21 16:28N 50°54' W 001°24'0 0.0
2018-May-21 15:58N 50°54' W 001°24'0 0.0
2018-May-21 15:28N 50°54' W 001°24'0 0.0
2018-May-21 14:58N 50°54' W 001°24'0 0.0
2018-May-21 14:28N 50°54' W 001°24'0 0.0
2018-May-21 13:58N 50°54' W 001°24'0 0.0
2018-May-21 13:28N 50°54' W 001°24'0 0.0
2018-May-21 12:58N 50°54' W 001°24'0 0.0
2018-May-21 12:28N 50°54' W 001°24'0 0.0
2018-May-21 11:58N 50°54' W 001°24'0 0.0
2018-May-21 11:28N 50°54' W 001°24'0 0.0
2018-May-21 10:58N 50°54' W 001°24'0 0.0
2018-May-21 10:28N 50°54' W 001°24'0 0.0
2018-May-21 09:58N 50°54' W 001°24'0 0.0
2018-May-21 09:28N 50°54' W 001°24'0 0.0
2018-May-21 08:58N 50°54' W 001°24'0 0.0
2018-May-21 08:28N 50°54' W 001°24'0 0.0
2018-May-21 07:55N 50°54' W 001°24'0 0.0
2018-May-21 07:28N 50°54' W 001°24'0 0.0
2018-May-21 06:58N 50°54' W 001°24'0 0.0
2018-May-21 06:28N 50°54' W 001°24'0 0.0
2018-May-21 05:59N 50°54' W 001°24'1 1.3
2018-May-21 05:30N 50°53' W 001°24'4 7.5
2018-May-21 05:00N 50°50' W 001°19'4 7.8
2018-May-21 04:31N 50°46' W 001°19'815.4
2018-May-21 04:00N 50°45' W 001°07'815.7
2018-May-21 03:30N 50°41' W 000°56'611.1
2018-May-21 03:01N 50°36' W 000°51'611.9
2018-May-21 02:31N 50°33' W 000°44'3 7.0
2018-May-21 02:01N 50°30' W 000°40'1 1.5
2018-May-21 01:31N 50°30' W 000°41'1 2.2
2018-May-21 01:01N 50°29' W 000°42'1 1.5
2018-May-21 00:30N 50°29' W 000°43'1 1.7
2018-May-21 00:00N 50°29' W 000°44'1 1.7
2018-May-20 23:31N 50°29' W 000°46'1 1.5
2018-May-20 23:01N 50°29' W 000°47'1 2.2
2018-May-20 22:31N 50°29' W 000°48'0 0.4
2018-May-20 22:01N 50°29' W 000°48'1 1.4
2018-May-20 21:30N 50°29' W 000°49'1 2.1
2018-May-20 21:01N 50°30' W 000°51'0 0.8
2018-May-20 20:31N 50°29' W 000°51'1 2.4
2018-May-20 20:01N 50°30' W 000°53'1 1.4
2018-May-20 19:31N 50°29' W 000°52'1 1.3
2018-May-20 19:01N 50°29' W 000°52'1 1.5
2018-May-20 18:30N 50°28' W 000°51'1 1.6
2018-May-20 18:00N 50°29' W 000°52'1 1.7
2018-May-20 17:30N 50°29' W 000°51'1 1.6
2018-May-20 17:00N 50°29' W 000°52'0 0.3
2018-May-20 16:30N 50°29' W 000°52'1 2.5
2018-May-20 16:00N 50°29' W 000°50'1 1.9
2018-May-20 15:31N 50°28' W 000°49'0 1.0
2018-May-20 15:01N 50°29' W 000°48'1 1.1
2018-May-20 14:30N 50°29' W 000°48'0 0.1
2018-May-20 14:00N 50°29' W 000°48'1 1.3
2018-May-20 13:31N 50°29' W 000°48'510.5
2018-May-20 13:00N 50°30' W 000°40'713.2
2018-May-20 12:30N 50°31' W 000°30'713.6
2018-May-20 12:00N 50°32' W 000°19'713.8
2018-May-20 11:30N 50°33' W 000°08'713.9
2018-May-20 11:00N 50°33' E 000°02'714.7
2018-May-20 10:30N 50°35' E 000°14'815.3
2018-May-20 10:00N 50°36' E 000°25'816.1
2018-May-20 09:30N 50°39' E 000°37'816.8
2018-May-20 09:00N 50°44' E 000°48'917.1
2018-May-20 08:30N 50°49' E 000°59'917.1
2018-May-20 07:57N 50°55' E 001°11'816.9
2018-May-20 07:29N 51°00' E 001°20'816.4
2018-May-20 07:00N 51°05' E 001°30'815.3
2018-May-20 06:30N 51°10' E 001°39'714.8
2018-May-20 06:00N 51°15' E 001°48'714.2
2018-May-20 05:30N 51°21' E 001°55'612.3
2018-May-20 05:00N 51°25' E 002°02'815.2
2018-May-20 04:31N 51°22' E 002°14'713.4
2018-May-20 04:00N 51°22' E 002°24'814.3
2018-May-20 03:28N 51°23' E 002°37'713.2
2018-May-20 02:59N 51°22' E 002°47'816.3
2018-May-20 02:30N 51°23' E 002°59'714.3
2018-May-20 02:00N 51°22' E 003°11'3 5.4
2018-May-20 01:30N 51°20' E 003°13'0 0.0
2018-May-20 00:58N 51°20' E 003°13'1 2.2
2018-May-20 00:28N 51°19' E 003°14'0 0.0
2018-May-19 23:52N 51°19' E 003°14'0 0.0
2018-May-19 23:25N 51°19' E 003°14'0 0.0
2018-May-19 22:58N 51°19' E 003°14'0 0.0
2018-May-19 22:10N 51°19' E 003°14'0 0.0
2018-May-19 21:58N 51°19' E 003°14'0 0.0
2018-May-19 21:28N 51°19' E 003°14'0 0.0
2018-May-19 20:58N 51°19' E 003°14'0 0.0
2018-May-19 20:28N 51°19' E 003°14'0 0.0
2018-May-19 19:55N 51°19' E 003°14'0 0.0
2018-May-19 19:25N 51°19' E 003°14'0 0.0
2018-May-19 18:49N 51°19' E 003°14'0 0.0
2018-May-19 18:19N 51°19' E 003°14'0 0.0
2018-May-19 17:49N 51°19' E 003°14'0 0.0
2018-May-19 17:13N 51°19' E 003°14'0 0.0
2018-May-19 16:52N 51°19' E 003°14'0 0.0
2018-May-19 16:28N 51°19' E 003°14'0 0.0
2018-May-19 15:52N 51°19' E 003°14'0 0.0
2018-May-19 14:22N 51°19' E 003°14'0 0.0
2018-May-19 13:46N 51°19' E 003°14'0 0.0
2018-May-19 13:28N 51°19' E 003°14'0 0.0
2018-May-19 12:46N 51°19' E 003°14'0 0.0
2018-May-19 12:25N 51°19' E 003°14'0 0.0
2018-May-19 11:37N 51°19' E 003°14'0 0.0
2018-May-19 11:19N 51°19' E 003°14'0 0.0
2018-May-19 10:46N 51°19' E 003°14'0 0.0
2018-May-19 10:25N 51°19' E 003°14'0 0.0
2018-May-19 09:37N 51°19' E 003°14'0 0.0
2018-May-19 09:25N 51°19' E 003°14'0 0.0
2018-May-19 08:55N 51°19' E 003°14'0 0.0
2018-May-19 08:28N 51°19' E 003°14'0 0.0
2018-May-19 07:43N 51°19' E 003°14'0 0.0
2018-May-19 07:25N 51°19' E 003°14'0 0.0
2018-May-19 06:55N 51°19' E 003°14'0 0.0
2018-May-19 06:28N 51°19' E 003°14'0 0.0
2018-May-19 05:58N 51°19' E 003°14'0 0.0
2018-May-19 05:13N 51°19' E 003°14'0 0.0
2018-May-19 04:52N 51°19' E 003°14'0 0.0
2018-May-19 04:25N 51°19' E 003°14'0 0.0
2018-May-19 03:55N 51°19' E 003°14'0 0.0
2018-May-19 03:28N 51°19' E 003°14'0 0.0
2018-May-19 02:58N 51°19' E 003°14'0 0.0
2018-May-19 02:28N 51°19' E 003°14'0 0.0
2018-May-19 01:40N 51°19' E 003°14'0 0.0
2018-May-19 01:28N 51°19' E 003°14'0 0.0
2018-May-19 00:46N 51°19' E 003°14'0 0.0
2018-May-19 00:13N 51°19' E 003°14'0 0.0
2018-May-18 23:55N 51°19' E 003°14'0 0.0
2018-May-18 23:25N 51°19' E 003°14'0 0.0
2018-May-18 22:43N 51°19' E 003°14'0 0.0
2018-May-18 22:25N 51°19' E 003°14'0 0.0
2018-May-18 21:46N 51°19' E 003°14'0 0.0
2018-May-18 21:13N 51°19' E 003°14'0 0.0
2018-May-18 20:58N 51°19' E 003°14'0 0.0
2018-May-18 20:19N 51°19' E 003°14'0 0.0
2018-May-18 19:46N 51°19' E 003°14'0 0.0
2018-May-18 19:19N 51°19' E 003°14'0 0.0
2018-May-18 18:49N 51°19' E 003°14'0 0.0
2018-May-18 18:19N 51°19' E 003°14'0 0.0
2018-May-18 17:58N 51°19' E 003°14'0 0.0
2018-May-18 17:28N 51°19' E 003°14'0 0.0
2018-May-18 16:58N 51°19' E 003°14'0 0.0
2018-May-18 16:25N 51°19' E 003°14'0 0.0
2018-May-18 15:52N 51°19' E 003°14'0 0.0
2018-May-18 15:28N 51°19' E 003°14'0 0.0
2018-May-18 14:55N 51°19' E 003°14'0 0.0
2018-May-18 14:28N 51°19' E 003°14'0 0.0
2018-May-18 13:58N 51°19' E 003°14'0 0.0
2018-May-18 13:25N 51°19' E 003°14'0 0.0
2018-May-18 12:49N 51°19' E 003°14'0 0.0
2018-May-18 12:25N 51°19' E 003°14'0 0.0
2018-May-18 11:58N 51°19' E 003°14'1 1.6
2018-May-18 11:30N 51°20' E 003°13'0 0.7
2018-May-18 10:59N 51°20' E 003°13'0 0.4
2018-May-18 10:30N 51°20' E 003°13'3 5.8
2018-May-18 10:00N 51°23' E 003°10'612.6
2018-May-18 09:30N 51°23' E 003°00'713.5
2018-May-18 09:01N 51°22' E 002°50'611.7
2018-May-18 08:31N 51°22' E 002°40'610.8
2018-May-18 07:59N 51°22' E 002°31'713.8
2018-May-18 07:27N 51°29' E 002°35'817.2
2018-May-18 07:00N 51°36' E 002°39'916.4
2018-May-18 06:29N 51°45' E 002°38'817.1
2018-May-18 06:00N 51°53' E 002°39'916.7
2018-May-18 05:29N 52°00' E 002°46'816.4
2018-May-18 05:00N 52°07' E 002°55'816.1
2018-May-18 04:31N 52°13' E 003°02'816.2
2018-May-18 04:00N 52°20' E 003°10'1016.5
2018-May-18 03:24N 52°28' E 003°20'716.7
2018-May-18 03:00N 52°33' E 003°26'917.3
2018-May-18 02:30N 52°40' E 003°34'1518.4
2018-May-18 01:41N 52°52' E 003°50'518.9
2018-May-18 01:26N 52°55' E 003°55'919.0
2018-May-18 00:56N 53°02' E 004°07'1019.3
2018-May-18 00:26N 53°08' E 004°19'919.3
2018-May-18 00:00N 53°14' E 004°28'1418.8
2018-May-17 23:14N 53°28' E 004°38'418.5
2018-May-17 23:00N 53°29' E 004°44'918.1
2018-May-17 22:31N 53°33' E 004°58'917.5
2018-May-17 21:59N 53°37' E 005°12'816.8
2018-May-17 21:30N 53°40' E 005°25'916.8
2018-May-17 20:57N 53°42' E 005°40'8615.7
2018-May-17 15:28N 53°50' E 008°04'817.0
2018-May-17 15:00N 53°44' E 008°14'714.6
2018-May-17 14:30N 53°40' E 008°23'612.6
2018-May-17 14:00N 53°36' E 008°31'2 3.6
2018-May-17 13:30N 53°34' E 008°33'0 0.1
2018-May-17 13:00N 53°34' E 008°33'0 0.9
2018-May-17 12:30N 53°35' E 008°33'0 0.0
2018-May-17 11:55N 53°35' E 008°33'0 0.0
2018-May-17 11:25N 53°35' E 008°33'0 0.0
2018-May-17 10:58N 53°35' E 008°33'0 0.0
2018-May-17 10:28N 53°35' E 008°33'0 0.0
2018-May-17 09:52N 53°35' E 008°33'0 0.0
2018-May-17 09:28N 53°35' E 008°33'0 0.0
2018-May-17 08:58N 53°35' E 008°33'0 0.0
2018-May-17 08:19N 53°35' E 008°33'0 0.0
2018-May-17 07:58N 53°35' E 008°33'0 0.0
2018-May-17 07:28N 53°35' E 008°33'0 0.0
2018-May-17 06:58N 53°35' E 008°33'0 0.0
2018-May-17 06:28N 53°35' E 008°33'0 0.0
2018-May-17 05:55N 53°35' E 008°33'0 0.0
2018-May-17 05:28N 53°35' E 008°33'0 0.0
2018-May-17 04:58N 53°35' E 008°33'0 0.0
2018-May-17 04:28N 53°35' E 008°33'0 0.0
2018-May-17 03:58N 53°35' E 008°33'0 0.0
2018-May-17 03:28N 53°35' E 008°33'0 0.0
2018-May-17 02:58N 53°35' E 008°33'0 0.0
2018-May-17 02:28N 53°35' E 008°33'0 0.0
2018-May-17 01:58N 53°35' E 008°33'0 0.0
2018-May-17 01:28N 53°35' E 008°33'0 0.0
2018-May-17 00:58N 53°35' E 008°33'0 0.0
2018-May-17 00:28N 53°35' E 008°33'0 0.0
2018-May-16 23:58N 53°35' E 008°33'0 0.0
2018-May-16 23:28N 53°35' E 008°33'0 0.0
2018-May-16 22:58N 53°35' E 008°33'0 0.0
2018-May-16 22:25N 53°35' E 008°33'0 0.0
2018-May-16 21:58N 53°35' E 008°33'0 0.0
2018-May-16 21:25N 53°35' E 008°33'0 0.0
2018-May-16 20:58N 53°35' E 008°33'0 0.0
2018-May-16 20:28N 53°35' E 008°33'0 0.0
2018-May-16 19:58N 53°35' E 008°33'0 0.0
2018-May-16 19:19N 53°35' E 008°33'0 0.0
2018-May-16 18:58N 53°35' E 008°33'0 0.0
2018-May-16 18:28N 53°35' E 008°33'0 0.0
2018-May-16 17:58N 53°35' E 008°33'0 0.0
2018-May-16 17:28N 53°35' E 008°33'0 0.0
2018-May-16 16:55N 53°35' E 008°33'0 0.0
2018-May-16 16:28N 53°35' E 008°33'0 0.0
2018-May-16 15:58N 53°35' E 008°33'0 0.0
2018-May-16 15:28N 53°35' E 008°33'0 0.0
2018-May-16 14:58N 53°35' E 008°33'0 0.0
2018-May-16 14:28N 53°35' E 008°33'0 0.0
2018-May-16 13:58N 53°35' E 008°33'0 0.0
2018-May-16 13:28N 53°35' E 008°33'0 0.0
2018-May-16 12:58N 53°35' E 008°33'0 0.0
2018-May-16 12:28N 53°35' E 008°33'0 0.0
2018-May-16 11:58N 53°35' E 008°33'0 0.0
2018-May-16 11:28N 53°35' E 008°33'0 0.0
2018-May-16 10:58N 53°35' E 008°33'0 0.0
2018-May-16 10:28N 53°35' E 008°33'0 0.0
2018-May-16 09:55N 53°35' E 008°33'0 0.0
2018-May-16 09:25N 53°35' E 008°33'0 0.0
2018-May-16 08:58N 53°35' E 008°33'0 0.0
2018-May-16 08:28N 53°35' E 008°33'0 0.0
2018-May-16 07:58N 53°35' E 008°33'0 0.0
2018-May-16 07:28N 53°35' E 008°33'0 0.0
2018-May-16 06:58N 53°35' E 008°33'0 0.0
2018-May-16 06:28N 53°35' E 008°33'0 0.0
2018-May-16 05:58N 53°35' E 008°33'0 0.0
2018-May-16 05:28N 53°35' E 008°33'0 0.0
2018-May-16 04:58N 53°35' E 008°33'0 0.0
2018-May-16 04:28N 53°35' E 008°33'0 0.0
2018-May-16 03:58N 53°35' E 008°33'0 0.0
2018-May-16 03:28N 53°35' E 008°33'0 0.0
2018-May-16 02:58N 53°35' E 008°33'0 0.0
2018-May-16 02:28N 53°35' E 008°33'0 0.0
2018-May-16 01:58N 53°35' E 008°33'0 0.0
2018-May-16 01:28N 53°35' E 008°33'0 0.0
2018-May-16 00:58N 53°35' E 008°33'0 0.0
2018-May-16 00:28N 53°35' E 008°33'0 0.0
2018-May-15 23:55N 53°35' E 008°33'0 0.0
2018-May-15 23:28N 53°35' E 008°33'0 0.0
2018-May-15 22:58N 53°35' E 008°33'0 0.0
2018-May-15 22:28N 53°35' E 008°33'0 0.0
2018-May-15 21:58N 53°35' E 008°33'0 0.0
2018-May-15 21:28N 53°35' E 008°33'0 0.0
2018-May-15 20:43N 53°35' E 008°33'0 0.0
2018-May-15 20:22N 53°35' E 008°33'0 0.0
2018-May-15 19:58N 53°35' E 008°33'0 0.0
2018-May-15 19:28N 53°35' E 008°33'0 0.0
2018-May-15 18:52N 53°35' E 008°33'0 0.0
2018-May-15 18:28N 53°35' E 008°33'0 0.0
2018-May-15 17:58N 53°35' E 008°33'0 0.0
2018-May-15 17:28N 53°35' E 008°33'0 0.0
2018-May-15 16:58N 53°35' E 008°33'0 0.0
2018-May-15 16:28N 53°35' E 008°33'0 0.0
2018-May-15 15:58N 53°35' E 008°33'0 0.0
2018-May-15 15:28N 53°35' E 008°33'0 0.0
2018-May-15 14:58N 53°35' E 008°33'0 0.0
2018-May-15 14:25N 53°35' E 008°33'  

Dump ship's entire track history